Crested Eagle — V7RC8 — position and weather

sailwx.info

Track history (hours):
 
Tides and Currents Weather Stations Pressure Air Temp Water Temp Dewpoint Dewpoint Depression Visibility Wind Speed Wind Dir Waves Ship Positions

Crested Eagle

Last reported at 2018-Jul-14 03:08 UTC. Time now 2018-Jul-17 13:36 UTC.
Position N 01°31' E 103°07'.

Length 189 m; draft 7.4 m.

Type: Cargo ship. MMSI: 538003477.

Date/timePositionNaut miles runAvg speedWind from/ knotsBaromVisibWave heightAir tempDewpointWater temp
2018-Jul-14 03:08N 01°31' E 103°07'310.9
2018-Jul-14 02:54N 01°29' E 103°09'510.8
2018-Jul-14 02:28N 01°26' E 103°12'610.9
2018-Jul-14 01:58N 01°22' E 103°16'511.4
2018-Jul-14 01:29N 01°18' E 103°20'611.5
2018-Jul-14 00:59N 01°15' E 103°25'613.0
2018-Jul-14 00:30N 01°13' E 103°31'612.6
2018-Jul-14 00:00N 01°12' E 103°37'511.2
2018-Jul-13 23:31N 01°10' E 103°42'4 9.0
2018-Jul-13 23:00N 01°10' E 103°47'5 9.8
2018-Jul-13 22:30N 01°12' E 103°51'5 9.8
2018-Jul-13 21:59N 01°14' E 103°56'510.4
2018-Jul-13 21:31N 01°16' E 104°00'5 9.6
2018-Jul-13 20:59N 01°17' E 104°05'510.0
2018-Jul-13 20:27N 01°17' E 104°10'4 9.3
2018-Jul-13 19:59N 01°18' E 104°15'4 9.2
2018-Jul-13 19:30N 01°19' E 104°19'5 8.4
2018-Jul-13 18:58N 01°22' E 104°23'4 8.6
2018-Jul-13 18:30N 01°24' E 104°26'710.3
2018-Jul-13 17:50N 01°25' E 104°33'  
Track history (hours):
 
Tides and Currents Weather Stations Pressure Air Temp Water Temp Dewpoint Dewpoint Depression Visibility Wind Speed Wind Dir Waves Ship Positions

Crested Eagle

Last reported at 2018-Jul-14 03:08 UTC. Time now 2018-Jul-17 13:36 UTC.
Position N 01°31' E 103°07'.

Length 189 m; draft 7.4 m.

Type: Cargo ship. MMSI: 538003477.

Date/timePositionNaut miles runAvg speedWind from/ knotsBaromVisibWave heightAir tempDewpointWater temp
2018-Jul-14 03:08N 01°31' E 103°07'310.9
2018-Jul-14 02:54N 01°29' E 103°09'510.8
2018-Jul-14 02:28N 01°26' E 103°12'610.9
2018-Jul-14 01:58N 01°22' E 103°16'511.4
2018-Jul-14 01:29N 01°18' E 103°20'611.5
2018-Jul-14 00:59N 01°15' E 103°25'613.0
2018-Jul-14 00:30N 01°13' E 103°31'612.6
2018-Jul-14 00:00N 01°12' E 103°37'511.2
2018-Jul-13 23:31N 01°10' E 103°42'4 9.0
2018-Jul-13 23:00N 01°10' E 103°47'5 9.8
2018-Jul-13 22:30N 01°12' E 103°51'5 9.8
2018-Jul-13 21:59N 01°14' E 103°56'510.4
2018-Jul-13 21:31N 01°16' E 104°00'5 9.6
2018-Jul-13 20:59N 01°17' E 104°05'510.0
2018-Jul-13 20:27N 01°17' E 104°10'4 9.3
2018-Jul-13 19:59N 01°18' E 104°15'4 9.2
2018-Jul-13 19:30N 01°19' E 104°19'5 8.4
2018-Jul-13 18:58N 01°22' E 104°23'4 8.6
2018-Jul-13 18:30N 01°24' E 104°26'710.3
2018-Jul-13 17:50N 01°25' E 104°33'  

Dump ship's entire track history